createdAt,value
2017-09-24T00:00:55.717Z,11.00
2017-09-24T00:03:22.863Z,10.90
2017-09-24T00:05:49.167Z,10.90
2017-09-24T00:08:15.567Z,10.90
2017-09-24T00:10:41.914Z,10.80
2017-09-24T00:13:08.215Z,10.80
2017-09-24T00:15:35.251Z,10.80
2017-09-24T00:18:02.575Z,10.90
2017-09-24T00:20:29.531Z,10.80
2017-09-24T00:22:56.887Z,10.90
2017-09-24T00:25:23.248Z,11.00
2017-09-24T00:27:49.575Z,11.00
2017-09-24T00:30:15.967Z,11.10
2017-09-24T00:32:42.871Z,11.10
2017-09-24T00:35:09.634Z,11.10
2017-09-24T00:37:35.959Z,11.10
2017-09-24T00:40:02.285Z,11.20
2017-09-24T00:42:29.527Z,11.20
2017-09-24T00:44:55.859Z,11.20
2017-09-24T00:47:22.211Z,11.30
2017-09-24T00:49:48.565Z,11.30
2017-09-24T00:52:15.695Z,11.40
2017-09-24T00:54:42.954Z,11.30
2017-09-24T00:57:09.302Z,11.30
2017-09-24T00:59:35.651Z,11.30
2017-09-24T01:02:02.027Z,11.30
2017-09-24T01:04:28.367Z,11.30
2017-09-24T01:06:54.763Z,11.30
2017-09-24T01:09:21.243Z,11.30
2017-09-24T01:11:47.564Z,11.30
2017-09-24T01:14:14.623Z,11.30
2017-09-24T01:16:41.103Z,11.30
2017-09-24T01:19:08.051Z,11.30
2017-09-24T01:21:34.915Z,11.20
2017-09-24T01:24:02.428Z,11.30
2017-09-24T01:26:29.463Z,11.30
2017-09-24T01:28:56.560Z,11.40
2017-09-24T01:31:24.183Z,11.40
2017-09-24T01:33:51.269Z,11.50
2017-09-24T01:36:17.620Z,11.50
2017-09-24T01:38:43.987Z,11.50
2017-09-24T01:41:10.348Z,11.40
2017-09-24T01:43:38.173Z,11.40
2017-09-24T01:46:04.485Z,11.30
2017-09-24T01:48:31.471Z,11.40
2017-09-24T01:50:58.511Z,11.40
2017-09-24T01:53:24.935Z,11.40
2017-09-24T01:55:52.219Z,11.40
2017-09-24T01:58:18.574Z,11.40
2017-09-24T02:00:44.924Z,11.50
2017-09-24T02:03:12.023Z,11.60
2017-09-24T02:05:39.199Z,11.60
2017-09-24T02:08:05.507Z,11.60
2017-09-24T02:10:31.815Z,11.60
2017-09-24T02:12:58.900Z,11.50
2017-09-24T02:15:26.175Z,11.50
2017-09-24T02:17:52.463Z,11.50
2017-09-24T02:20:20.211Z,11.50
2017-09-24T02:22:46.523Z,11.50
2017-09-24T02:25:13.248Z,11.60
2017-09-24T02:27:39.561Z,11.50
2017-09-24T02:30:06.463Z,11.50
2017-09-24T02:32:32.767Z,11.50
2017-09-24T02:34:59.051Z,11.50
2017-09-24T02:37:26.224Z,11.60
2017-09-24T02:39:53.251Z,11.60
2017-09-24T02:42:20.073Z,11.60
2017-09-24T02:44:46.423Z,11.50
2017-09-24T02:47:13.567Z,11.40
2017-09-24T02:49:39.847Z,11.40
2017-09-24T02:52:07.477Z,11.40
2017-09-24T02:54:34.564Z,11.40
2017-09-24T02:57:01.600Z,11.30
2017-09-24T02:59:28.004Z,11.30
2017-09-24T03:01:54.332Z,11.20
2017-09-24T03:04:20.626Z,11.20
2017-09-24T03:06:47.763Z,11.20
2017-09-24T03:09:14.104Z,11.20
2017-09-24T03:11:40.413Z,11.20
2017-09-24T03:14:06.703Z,11.10
2017-09-24T03:16:33.693Z,11.10
2017-09-24T03:19:00.646Z,11.10
2017-09-24T03:21:26.958Z,11.10
2017-09-24T03:23:53.934Z,11.00
2017-09-24T03:26:21.187Z,11.00
2017-09-24T03:28:47.469Z,10.90
2017-09-24T03:31:14.523Z,10.80
2017-09-24T03:33:41.604Z,10.80
2017-09-24T03:36:07.923Z,10.80
2017-09-24T03:38:34.326Z,10.80
2017-09-24T03:41:01.456Z,10.70
2017-09-24T03:43:28.373Z,10.70
2017-09-24T03:45:55.358Z,10.70
2017-09-24T03:48:21.678Z,10.70
2017-09-24T03:50:48.002Z,10.60
2017-09-24T03:53:14.334Z,10.60
2017-09-24T03:55:41.318Z,10.60
2017-09-24T03:58:07.622Z,10.60
2017-09-24T04:00:33.940Z,10.60
2017-09-24T04:03:01.059Z,10.60
2017-09-24T04:05:27.900Z,10.60
2017-09-24T04:07:54.198Z,10.60
2017-09-24T04:10:20.541Z,10.60
2017-09-24T04:12:46.883Z,10.70
2017-09-24T04:15:13.195Z,10.70
2017-09-24T04:17:40.342Z,10.50
2017-09-24T04:20:08.574Z,10.50
2017-09-24T04:22:34.870Z,10.40
2017-09-24T04:25:02.686Z,10.60
2017-09-24T04:27:29.635Z,10.60
2017-09-24T04:29:55.958Z,10.60
2017-09-24T04:32:22.254Z,10.70
2017-09-24T04:34:49.340Z,10.60
2017-09-24T04:37:15.643Z,10.60
2017-09-24T04:39:42.796Z,10.60
2017-09-24T04:42:10.590Z,10.70
2017-09-24T04:44:37.462Z,10.70
2017-09-24T04:47:03.810Z,10.70
2017-09-24T04:49:30.117Z,10.60
2017-09-24T04:51:56.990Z,10.70
2017-09-24T04:54:23.292Z,10.70
2017-09-24T04:56:50.164Z,10.70
2017-09-24T04:59:16.459Z,10.80
2017-09-24T05:01:42.758Z,10.70
2017-09-24T05:04:09.093Z,10.80
2017-09-24T05:06:35.407Z,10.80
2017-09-24T05:09:01.876Z,10.90
2017-09-24T05:11:28.254Z,10.90
2017-09-24T05:13:54.542Z,10.90
2017-09-24T05:16:20.856Z,10.90
2017-09-24T05:18:47.910Z,10.90
2017-09-24T05:21:14.766Z,10.90
2017-09-24T05:23:42.375Z,10.90
2017-09-24T05:26:10.299Z,11.00
2017-09-24T05:28:37.348Z,11.00
2017-09-24T05:31:03.688Z,11.00
2017-09-24T05:33:30.031Z,10.90
2017-09-24T05:35:56.341Z,10.80
2017-09-24T05:38:22.732Z,10.80
2017-09-24T05:40:49.856Z,10.80
2017-09-24T05:43:16.703Z,10.80
2017-09-24T05:45:43.040Z,10.80
2017-09-24T05:48:09.348Z,11.00
2017-09-24T05:50:36.100Z,11.10
2017-09-24T05:53:02.446Z,11.10
2017-09-24T05:55:29.307Z,11.10
2017-09-24T05:57:55.631Z,11.20
2017-09-24T06:00:22.005Z,11.30
2017-09-24T06:02:48.371Z,11.40
2017-09-24T06:05:14.674Z,11.50
2017-09-24T06:07:41.109Z,11.50
2017-09-24T06:10:08.153Z,11.60
2017-09-24T06:12:34.507Z,11.60
2017-09-24T06:15:00.933Z,11.60
2017-09-24T06:17:27.259Z,11.60
2017-09-24T06:19:54.236Z,11.60
2017-09-24T06:22:20.520Z,11.60
2017-09-24T06:24:47.394Z,11.70
2017-09-24T06:27:14.276Z,11.80
2017-09-24T06:29:41.355Z,12.10
2017-09-24T06:32:07.683Z,12.00
2017-09-24T06:34:33.995Z,12.10
2017-09-24T06:37:00.450Z,12.20
2017-09-24T06:39:28.056Z,12.40
2017-09-24T06:41:55.222Z,12.40
2017-09-24T06:44:22.176Z,12.40
2017-09-24T06:46:50.322Z,12.40
2017-09-24T06:49:17.401Z,12.50
2017-09-24T06:51:44.036Z,12.50
2017-09-24T06:54:10.351Z,12.50
2017-09-24T06:56:37.226Z,12.50
2017-09-24T06:59:03.576Z,12.50
2017-09-24T07:01:29.891Z,12.40
2017-09-24T07:03:56.243Z,12.50
2017-09-24T07:06:22.584Z,12.60
2017-09-24T07:08:49.836Z,12.60
2017-09-24T07:11:16.146Z,12.60
2017-09-24T07:13:42.455Z,12.70
2017-09-24T07:16:10.283Z,13.00
2017-09-24T07:18:36.608Z,12.90
2017-09-24T07:21:03.560Z,13.00
2017-09-24T07:23:30.327Z,13.10
2017-09-24T07:25:56.631Z,13.30
2017-09-24T07:28:22.943Z,13.50
2017-09-24T07:30:50.180Z,13.60
2017-09-24T07:33:17.243Z,13.80
2017-09-24T07:35:44.744Z,13.80
2017-09-24T07:38:11.047Z,13.70
2017-09-24T07:40:37.360Z,13.90
2017-09-24T07:43:05.031Z,14.10
2017-09-24T07:45:32.451Z,14.30
2017-09-24T07:47:58.756Z,14.20
2017-09-24T07:50:25.067Z,14.40
2017-09-24T07:52:52.135Z,14.40
2017-09-24T07:55:19.240Z,14.40
2017-09-24T07:57:46.183Z,14.50
2017-09-24T08:00:12.488Z,14.50
2017-09-24T08:02:38.816Z,14.60
2017-09-24T08:05:06.028Z,14.60
2017-09-24T08:07:32.332Z,14.70
2017-09-24T08:09:58.735Z,14.60
2017-09-24T08:12:25.816Z,14.50
2017-09-24T08:14:52.693Z,14.50
2017-09-24T08:17:18.995Z,14.30
2017-09-24T08:19:45.331Z,14.30
2017-09-24T08:22:12.184Z,14.20
2017-09-24T08:24:39.200Z,14.20
2017-09-24T08:27:06.355Z,14.50
2017-09-24T08:29:34.093Z,14.70
2017-09-24T08:32:01.133Z,14.70
2017-09-24T08:34:28.099Z,14.80
2017-09-24T08:36:54.407Z,15.10
2017-09-24T08:39:20.724Z,15.20
2017-09-24T08:41:47.922Z,15.40
2017-09-24T08:44:15.558Z,15.70
2017-09-24T08:46:41.897Z,15.70
2017-09-24T08:49:08.267Z,15.90
2017-09-24T08:51:34.999Z,16.10
2017-09-24T08:54:01.995Z,16.20
2017-09-24T08:56:29.819Z,16.30
2017-09-24T08:58:56.498Z,16.30
2017-09-24T09:01:23.563Z,16.30
2017-09-24T09:03:50.651Z,16.20
2017-09-24T09:06:17.148Z,16.20
2017-09-24T09:08:44.271Z,16.20
2017-09-24T09:11:11.523Z,16.20
2017-09-24T09:13:37.833Z,16.20
2017-09-24T09:16:04.147Z,16.20
2017-09-24T09:18:31.229Z,16.40
2017-09-24T09:20:58.228Z,16.40
2017-09-24T09:23:25.355Z,16.50
2017-09-24T09:25:51.666Z,16.50
2017-09-24T09:28:17.959Z,16.60
2017-09-24T09:30:45.591Z,16.70
2017-09-24T09:33:20.381Z,16.70
2017-09-24T09:35:46.736Z,16.90
2017-09-24T09:38:13.808Z,17.10
2017-09-24T09:40:40.115Z,17.30
2017-09-24T09:43:06.932Z,17.40
2017-09-24T09:46:00.148Z,17.80
2017-09-24T09:50:59.164Z,18.00
2017-09-24T09:53:25.513Z,18.00
2017-09-24T09:55:52.556Z,18.20
2017-09-24T09:58:18.885Z,18.20
2017-09-24T10:00:45.740Z,18.10
2017-09-24T10:03:12.052Z,18.00
2017-09-24T10:05:38.739Z,17.80
2017-09-24T10:08:10.089Z,17.80
2017-09-24T10:10:37.029Z,17.70
2017-09-24T10:13:03.390Z,17.70
2017-09-24T10:15:31.352Z,17.70
2017-09-24T10:17:58.196Z,17.60
2017-09-24T10:20:25.772Z,17.90
2017-09-24T10:22:52.792Z,17.90
2017-09-24T10:25:19.844Z,17.80
2017-09-24T10:27:46.152Z,17.90
2017-09-24T10:30:25.208Z,18.00
2017-09-24T10:32:51.564Z,18.00
2017-09-24T10:35:18.556Z,18.10
2017-09-24T10:37:46.468Z,18.00
2017-09-24T10:40:12.827Z,18.00
2017-09-24T10:42:39.856Z,18.00
2017-09-24T10:45:06.797Z,17.90
2017-09-24T10:47:33.091Z,17.80
2017-09-24T10:50:00.196Z,17.70
2017-09-24T10:52:26.506Z,17.60
2017-09-24T10:54:52.957Z,17.70
2017-09-24T10:57:19.732Z,17.60
2017-09-24T10:59:47.491Z,17.50
2017-09-24T11:02:13.805Z,17.40
2017-09-24T11:04:40.117Z,17.50
2017-09-24T11:07:07.008Z,17.50
2017-09-24T11:09:33.335Z,17.70
2017-09-24T11:12:00.095Z,17.70
2017-09-24T11:14:26.399Z,18.00
2017-09-24T11:16:52.714Z,18.20
2017-09-24T11:19:19.070Z,18.30
2017-09-24T11:21:46.667Z,18.50
2017-09-24T11:24:13.411Z,18.50
2017-09-24T11:26:40.256Z,18.60
2017-09-24T11:29:06.568Z,18.80
2017-09-24T11:31:32.899Z,18.90
2017-09-24T11:33:59.242Z,19.10
2017-09-24T11:36:25.535Z,19.30
2017-09-24T11:38:53.155Z,19.50
2017-09-24T11:41:19.627Z,19.50
2017-09-24T11:43:46.360Z,19.40
2017-09-24T11:46:12.732Z,19.50
2017-09-24T11:48:39.807Z,19.60
2017-09-24T11:51:06.777Z,19.60
2017-09-24T11:53:33.883Z,19.90
2017-09-24T11:56:01.907Z,20.00
2017-09-24T11:58:28.240Z,20.00
2017-09-24T12:00:55.516Z,20.00
2017-09-24T12:03:21.851Z,19.80
2017-09-24T12:05:48.604Z,19.80
2017-09-24T12:08:14.916Z,19.50
2017-09-24T12:10:41.292Z,19.40
2017-09-24T12:13:07.764Z,19.20
2017-09-24T12:15:34.444Z,19.20
2017-09-24T12:18:01.000Z,19.20
2017-09-24T12:20:27.320Z,19.10
2017-09-24T12:22:53.671Z,19.10
2017-09-24T12:25:20.729Z,19.10
2017-09-24T12:27:47.823Z,19.00
2017-09-24T12:30:15.024Z,18.90
2017-09-24T12:32:41.448Z,18.90
2017-09-24T12:35:07.792Z,18.80
2017-09-24T12:37:35.256Z,18.70
2017-09-24T12:40:01.624Z,18.70
2017-09-24T12:42:28.742Z,18.70
2017-09-24T12:44:56.012Z,18.70
2017-09-24T12:47:22.868Z,18.70
2017-09-24T12:49:50.662Z,18.70
2017-09-24T12:52:17.480Z,18.70
2017-09-24T12:54:44.568Z,18.60
2017-09-24T12:57:12.212Z,18.50
2017-09-24T12:59:39.538Z,18.60
2017-09-24T13:02:06.712Z,18.70
2017-09-24T13:04:33.784Z,18.80
2017-09-24T13:07:00.508Z,18.80
2017-09-24T13:09:27.552Z,18.90
2017-09-24T13:11:56.208Z,19.00
2017-09-24T13:14:24.236Z,19.40
2017-09-24T13:16:51.168Z,19.40
2017-09-24T13:19:18.139Z,19.50
2017-09-24T13:21:45.093Z,19.20
2017-09-24T13:24:11.959Z,19.30
2017-09-24T13:26:38.789Z,19.40
2017-09-24T13:29:05.944Z,19.20
2017-09-24T13:31:33.183Z,19.20
2017-09-24T13:34:00.548Z,19.10
2017-09-24T13:36:27.908Z,19.10
2017-09-24T13:38:54.904Z,19.10
2017-09-24T13:41:22.952Z,19.10
2017-09-24T13:43:50.039Z,19.10
2017-09-24T13:46:17.977Z,19.40
2017-09-24T13:48:44.892Z,19.40
2017-09-24T13:51:12.044Z,19.40
2017-09-24T13:53:39.619Z,19.40
2017-09-24T13:56:07.541Z,19.40
2017-09-24T13:58:34.659Z,19.40
2017-09-24T14:01:01.653Z,19.30
2017-09-24T14:03:29.276Z,19.10
2017-09-24T14:05:56.236Z,19.00
2017-09-24T14:08:23.484Z,19.00
2017-09-24T14:10:50.489Z,19.10
2017-09-24T14:13:18.886Z,19.10
2017-09-24T14:15:45.872Z,19.10
2017-09-24T14:18:13.542Z,19.00
2017-09-24T14:20:40.792Z,18.90
2017-09-24T14:23:07.948Z,18.80
2017-09-24T14:25:34.812Z,18.80
2017-09-24T14:28:01.868Z,18.80
2017-09-24T14:30:29.191Z,18.70
2017-09-24T14:32:56.467Z,18.60
2017-09-24T14:35:23.324Z,18.40
2017-09-24T14:37:50.428Z,18.20
2017-09-24T14:40:17.223Z,18.20
2017-09-24T14:42:44.281Z,18.20
2017-09-24T14:45:11.103Z,18.20
2017-09-24T14:47:38.012Z,18.10
2017-09-24T14:50:06.196Z,18.70
2017-09-24T14:52:33.708Z,19.50
2017-09-24T14:55:00.766Z,19.40
2017-09-24T14:57:27.923Z,20.30
2017-09-24T14:59:55.052Z,20.40
2017-09-24T15:02:22.229Z,21.00
2017-09-24T15:04:49.390Z,20.80
2017-09-24T15:07:17.800Z,20.70
2017-09-24T15:09:45.534Z,20.60
2017-09-24T15:12:11.880Z,20.60
2017-09-24T15:14:38.233Z,20.70
2017-09-24T15:17:05.772Z,20.50
2017-09-24T15:19:32.135Z,20.50
2017-09-24T15:21:59.224Z,19.80
2017-09-24T15:24:26.843Z,19.80
2017-09-24T15:26:53.188Z,19.50
2017-09-24T15:29:19.644Z,19.20
2017-09-24T15:31:46.734Z,18.80
2017-09-24T15:34:13.164Z,18.80
2017-09-24T15:36:40.965Z,18.30
2017-09-24T15:39:07.301Z,18.30
2017-09-24T15:41:34.382Z,18.20
2017-09-24T15:44:01.620Z,18.10
2017-09-24T15:46:28.435Z,17.90
2017-09-24T15:48:54.808Z,17.80
2017-09-24T15:51:21.156Z,17.80
2017-09-24T15:53:47.584Z,17.90
2017-09-24T15:56:14.787Z,17.90
2017-09-24T15:58:41.202Z,17.90
2017-09-24T16:01:08.364Z,17.70
2017-09-24T16:03:35.448Z,17.70
2017-09-24T16:06:01.837Z,17.70
2017-09-24T16:08:28.275Z,17.50
2017-09-24T16:10:54.644Z,17.50
2017-09-24T16:13:20.944Z,17.30
2017-09-24T16:15:47.896Z,17.20
2017-09-24T16:18:14.231Z,17.10
2017-09-24T16:20:40.665Z,17.10
2017-09-24T16:23:07.619Z,17.00
2017-09-24T16:25:34.655Z,16.90
2017-09-24T16:28:00.994Z,16.80
2017-09-24T16:30:28.048Z,16.70
2017-09-24T16:32:55.036Z,16.70
2017-09-24T16:35:22.756Z,16.60
2017-09-24T16:37:49.719Z,16.60
2017-09-24T16:40:16.600Z,16.50
2017-09-24T16:42:44.195Z,16.30
2017-09-24T16:45:10.500Z,16.30
2017-09-24T16:47:37.569Z,16.10
2017-09-24T16:50:03.988Z,16.10
2017-09-24T16:52:31.627Z,15.90
2017-09-24T16:54:57.924Z,15.90
2017-09-24T16:57:24.904Z,15.70
2017-09-24T16:59:51.265Z,15.60
2017-09-24T17:02:17.633Z,15.50
2017-09-24T17:04:44.032Z,15.30
2017-09-24T17:07:10.360Z,15.20
2017-09-24T17:09:36.759Z,15.10
2017-09-24T17:12:03.640Z,15.00
2017-09-24T17:14:29.959Z,14.90
2017-09-24T17:16:56.291Z,14.90
2017-09-24T17:19:23.243Z,14.80
2017-09-24T17:21:50.004Z,14.80
2017-09-24T17:24:16.798Z,14.70
2017-09-24T17:26:43.857Z,14.40
2017-09-24T17:29:10.172Z,14.40
2017-09-24T17:31:36.533Z,14.30
2017-09-24T17:34:04.256Z,14.30
2017-09-24T17:36:31.423Z,14.30
2017-09-24T17:38:57.748Z,14.30
2017-09-24T17:41:24.064Z,14.30
2017-09-24T17:43:50.945Z,14.20
2017-09-24T17:46:17.264Z,14.20
2017-09-24T17:48:43.627Z,14.10
2017-09-24T17:51:10.888Z,14.00
2017-09-24T17:53:37.228Z,14.00
2017-09-24T17:56:06.000Z,13.90
2017-09-24T17:58:32.344Z,13.90
2017-09-24T18:00:58.732Z,13.90
2017-09-24T18:03:25.616Z,13.80
2017-09-24T18:05:52.668Z,13.80
2017-09-24T18:08:18.994Z,13.70
2017-09-24T18:10:45.748Z,13.80
2017-09-24T18:13:12.069Z,13.70
2017-09-24T18:15:38.484Z,13.60
2017-09-24T18:18:05.020Z,13.50
2017-09-24T18:20:31.520Z,13.40
2017-09-24T18:22:58.000Z,13.30
2017-09-24T18:25:25.102Z,13.20
2017-09-24T18:27:51.451Z,13.20
2017-09-24T18:30:18.667Z,13.20
2017-09-24T18:32:46.088Z,13.10
2017-09-24T18:35:14.945Z,13.00
2017-09-24T18:37:41.458Z,13.00
2017-09-24T18:40:08.287Z,13.00
2017-09-24T18:42:36.332Z,13.10
2017-09-24T18:45:03.212Z,13.10
2017-09-24T18:47:30.516Z,13.10
2017-09-24T18:49:57.672Z,13.00
2017-09-24T18:52:24.276Z,13.00
2017-09-24T18:54:51.580Z,13.00
2017-09-24T18:57:19.068Z,13.00
2017-09-24T18:59:46.414Z,13.00
2017-09-24T19:02:14.401Z,13.00
2017-09-24T19:04:42.444Z,13.10
2017-09-24T19:07:09.696Z,13.10
2017-09-24T19:09:36.175Z,13.00
2017-09-24T19:12:03.988Z,12.90
2017-09-24T19:14:31.263Z,12.80
2017-09-24T19:16:57.776Z,12.80
2017-09-24T19:19:24.368Z,12.80
2017-09-24T19:21:50.915Z,12.80
2017-09-24T19:24:18.965Z,12.80
2017-09-24T19:26:46.096Z,12.80
2017-09-24T19:29:14.308Z,12.80
2017-09-24T19:31:42.180Z,12.80
2017-09-24T19:34:10.427Z,12.80
2017-09-24T19:36:39.147Z,12.70
2017-09-24T19:39:07.928Z,12.70
2017-09-24T19:41:36.088Z,12.60
2017-09-24T19:44:03.140Z,12.60
2017-09-24T19:46:31.115Z,12.60
2017-09-24T19:48:58.192Z,12.60
2017-09-24T19:51:26.755Z,12.50
2017-09-24T19:53:53.734Z,12.50
2017-09-24T19:56:20.988Z,12.50
2017-09-24T19:58:47.300Z,12.60
2017-09-24T20:01:13.603Z,12.60
2017-09-24T20:03:40.846Z,12.50
2017-09-24T20:06:08.588Z,12.60
2017-09-24T20:08:34.923Z,12.50
2017-09-24T20:11:02.177Z,12.50
2017-09-24T20:13:28.480Z,12.50
2017-09-24T20:15:54.792Z,12.40
2017-09-24T20:18:21.939Z,12.50
2017-09-24T20:20:49.009Z,12.40
2017-09-24T20:23:16.213Z,12.40
2017-09-24T20:25:42.532Z,12.30
2017-09-24T20:28:08.909Z,12.30
2017-09-24T20:30:35.959Z,12.40
2017-09-24T20:33:02.284Z,12.40
2017-09-24T20:35:28.900Z,12.40
2017-09-24T20:37:55.422Z,12.40
2017-09-24T20:40:22.489Z,12.40
2017-09-24T20:42:50.684Z,12.40
2017-09-24T20:45:18.230Z,12.40
2017-09-24T20:47:44.875Z,12.40
2017-09-24T20:50:11.255Z,12.40
2017-09-24T20:52:37.572Z,12.40
2017-09-24T20:55:03.968Z,12.40
2017-09-24T20:57:30.951Z,12.40
2017-09-24T20:59:57.272Z,12.40
2017-09-24T21:02:23.611Z,12.40
2017-09-24T21:04:49.976Z,12.50
2017-09-24T21:07:16.294Z,12.50
2017-09-24T21:09:42.976Z,12.40
2017-09-24T21:12:09.379Z,12.40
2017-09-24T21:14:35.694Z,12.40
2017-09-24T21:17:02.047Z,12.40
2017-09-24T21:19:28.356Z,12.40
2017-09-24T21:21:55.340Z,12.40
2017-09-24T21:24:22.392Z,12.30
2017-09-24T21:26:48.691Z,12.30
2017-09-24T21:29:15.016Z,12.40
2017-09-24T21:31:42.083Z,12.40
2017-09-24T21:34:09.079Z,12.40
2017-09-24T21:36:36.023Z,12.40
2017-09-24T21:39:02.404Z,12.40
2017-09-24T21:41:30.331Z,12.50
2017-09-24T21:43:57.142Z,12.50
2017-09-24T21:46:23.475Z,12.50
2017-09-24T21:48:49.791Z,12.40
2017-09-24T21:51:16.896Z,12.30
2017-09-24T21:53:43.237Z,12.30
2017-09-24T21:56:10.811Z,12.20
2017-09-24T21:58:38.267Z,12.20
2017-09-24T22:01:04.565Z,12.30
2017-09-24T22:03:30.883Z,12.30
2017-09-24T22:05:58.683Z,12.30
2017-09-24T22:08:25.457Z,12.30
2017-09-24T22:10:51.764Z,12.30
2017-09-24T22:13:18.094Z,12.30
2017-09-24T22:15:44.440Z,12.20
2017-09-24T22:18:12.039Z,12.20
2017-09-24T22:20:38.984Z,12.20
2017-09-24T22:23:06.039Z,12.30
2017-09-24T22:25:32.343Z,12.20
2017-09-24T22:27:58.645Z,12.20
2017-09-24T22:30:25.711Z,12.30
2017-09-24T22:32:52.768Z,12.30
2017-09-24T22:35:19.771Z,12.20
2017-09-24T22:37:46.088Z,12.30
2017-09-24T22:40:12.452Z,12.30
2017-09-24T22:42:39.368Z,12.30
2017-09-24T22:45:06.444Z,12.20
2017-09-24T22:47:32.752Z,12.30
2017-09-24T22:49:59.076Z,12.30
2017-09-24T22:52:25.428Z,12.20
2017-09-24T22:54:52.407Z,12.10
2017-09-24T22:57:19.135Z,12.10
2017-09-24T22:59:46.099Z,12.10
2017-09-24T23:02:12.424Z,12.10
2017-09-24T23:04:38.736Z,12.10
2017-09-24T23:07:05.404Z,12.00
2017-09-24T23:09:32.503Z,12.00
2017-09-24T23:12:00.242Z,12.00
2017-09-24T23:14:27.087Z,12.00
2017-09-24T23:16:53.411Z,11.90
2017-09-24T23:19:20.135Z,11.90
2017-09-24T23:21:46.428Z,11.90
2017-09-24T23:24:14.271Z,11.80
2017-09-24T23:26:40.581Z,11.80
2017-09-24T23:29:06.891Z,11.80
2017-09-24T23:31:33.967Z,11.70
2017-09-24T23:34:00.263Z,11.60
2017-09-24T23:36:28.487Z,11.60
2017-09-24T23:38:54.803Z,11.60
2017-09-24T23:41:21.103Z,11.50
2017-09-24T23:43:47.827Z,11.40
2017-09-24T23:46:14.463Z,11.40
2017-09-24T23:48:40.771Z,11.40
2017-09-24T23:51:07.112Z,11.30
2017-09-24T23:53:34.124Z,11.30
2017-09-24T23:56:00.432Z,11.20
2017-09-24T23:58:27.479Z,11.20
